sensor_id;sensor_type;location;lat;lon;timestamp;pressure;altitude;pressure_sealevel;temperature;humidity
72063;BME280;59929;43.546;-5.702;2022-09-09T00:02:26;101912.34;;;20.99;59.35
72063;BME280;59929;43.546;-5.702;2022-09-09T00:04:59;101907.63;;;21.00;59.77
72063;BME280;59929;43.546;-5.702;2022-09-09T00:07:43;101914.25;;;21.09;59.49
72063;BME280;59929;43.546;-5.702;2022-09-09T00:13:28;101911.19;;;21.16;59.27
72063;BME280;59929;43.546;-5.702;2022-09-09T00:16:10;101908.47;;;21.05;59.20
72063;BME280;59929;43.546;-5.702;2022-09-09T00:18:57;101908.19;;;21.12;59.03
72063;BME280;59929;43.546;-5.702;2022-09-09T00:21:37;101904.88;;;21.05;59.47
72063;BME280;59929;43.546;-5.702;2022-09-09T00:24:23;101916.50;;;21.07;59.30
72063;BME280;59929;43.546;-5.702;2022-09-09T00:26:53;101916.50;;;21.07;59.36
72063;BME280;59929;43.546;-5.702;2022-09-09T00:29:35;101904.88;;;21.05;59.23
72063;BME280;59929;43.546;-5.702;2022-09-09T00:32:12;101906.50;;;21.11;59.31
72063;BME280;59929;43.546;-5.702;2022-09-09T00:34:49;101898.50;;;21.10;59.21
72063;BME280;59929;43.546;-5.702;2022-09-09T00:37:18;101891.31;;;21.08;59.38
72063;BME280;59929;43.546;-5.702;2022-09-09T00:39:46;101896.03;;;20.98;58.99
72063;BME280;59929;43.546;-5.702;2022-09-09T00:42:23;101896.31;;;20.96;59.30
72063;BME280;59929;43.546;-5.702;2022-09-09T00:45:02;101905.50;;;20.87;59.72
72063;BME280;59929;43.546;-5.702;2022-09-09T00:56:17;101907.47;;;20.71;59.44
72063;BME280;59929;43.546;-5.702;2022-09-09T00:59:00;101905.25;;;20.83;59.10
72063;BME280;59929;43.546;-5.702;2022-09-09T01:01:32;101909.94;;;20.78;59.47
72063;BME280;59929;43.546;-5.702;2022-09-09T01:03:57;101902.75;;;20.82;58.90
72063;BME280;59929;43.546;-5.702;2022-09-09T01:06:34;101909.34;;;20.86;59.06
72063;BME280;59929;43.546;-5.702;2022-09-09T01:12:09;101919.38;;;20.72;59.40
72063;BME280;59929;43.546;-5.702;2022-09-09T01:14:42;101914.97;;;20.71;59.22
72063;BME280;59929;43.546;-5.702;2022-09-09T01:17:17;101917.16;;;20.74;59.33
72063;BME280;59929;43.546;-5.702;2022-09-09T01:19:59;101908.84;;;20.79;59.10
72063;BME280;59929;43.546;-5.702;2022-09-09T01:22:44;101911.09;;;20.67;59.35
72063;BME280;59929;43.546;-5.702;2022-09-09T01:28:21;101909.78;;;20.49;59.34
72063;BME280;59929;43.546;-5.702;2022-09-09T01:30:48;101910.56;;;20.55;59.61
72063;BME280;59929;43.546;-5.702;2022-09-09T01:33:16;101910.56;;;20.55;59.49
72063;BME280;59929;43.546;-5.702;2022-09-09T01:35:50;101903.13;;;20.55;59.46
72063;BME280;59929;43.546;-5.702;2022-09-09T01:38:20;101900.06;;;20.67;59.13
72063;BME280;59929;43.546;-5.702;2022-09-09T01:40:47;101911.09;;;20.67;59.47
72063;BME280;59929;43.546;-5.702;2022-09-09T01:43:13;101909.97;;;20.68;59.62
72063;BME280;59929;43.546;-5.702;2022-09-09T01:45:40;101909.16;;;20.67;59.44
72063;BME280;59929;43.546;-5.702;2022-09-09T01:48:08;101909.97;;;20.73;59.15
72063;BME280;59929;43.546;-5.702;2022-09-09T01:50:34;101914.38;;;20.79;58.91
72063;BME280;59929;43.546;-5.702;2022-09-09T01:53:01;101919.38;;;20.72;59.12
72063;BME280;59929;43.546;-5.702;2022-09-09T01:55:30;101911.31;;;20.75;59.06
72063;BME280;59929;43.546;-5.702;2022-09-09T01:58:11;101917.16;;;20.74;59.20
72063;BME280;59929;43.546;-5.702;2022-09-09T02:00:44;101914.34;;;20.84;58.90
72063;BME280;59929;43.546;-5.702;2022-09-09T02:03:32;101915.47;;;20.78;59.14
72063;BME280;59929;43.546;-5.702;2022-09-09T02:06:15;101919.63;;;20.75;59.25
72063;BME280;59929;43.546;-5.702;2022-09-09T02:08:49;101915.19;;;20.79;59.04
72063;BME280;59929;43.546;-5.702;2022-09-09T02:11:19;101923.22;;;20.76;59.31
72063;BME280;59929;43.546;-5.702;2022-09-09T02:13:47;101922.63;;;20.84;59.27
72063;BME280;59929;43.546;-5.702;2022-09-09T02:16:21;101927.91;;;20.80;59.20
72063;BME280;59929;43.546;-5.702;2022-09-09T02:18:53;101925.94;;;20.86;59.17
72063;BME280;59929;43.546;-5.702;2022-09-09T02:21:22;101926.78;;;20.86;59.06
72063;BME280;59929;43.546;-5.702;2022-09-09T02:23:50;101924.88;;;20.77;59.15
72063;BME280;59929;43.546;-5.702;2022-09-09T02:26:19;101929.63;;;20.61;59.45
72063;BME280;59929;43.546;-5.702;2022-09-09T02:28:50;101940.66;;;20.71;59.25
72063;BME280;59929;43.546;-5.702;2022-09-09T02:31:20;101922.38;;;20.80;58.77
72063;BME280;59929;43.546;-5.702;2022-09-09T02:33:52;101930.38;;;20.82;58.57
72063;BME280;59929;43.546;-5.702;2022-09-09T02:36:20;101928.75;;;20.81;58.84
72063;BME280;59929;43.546;-5.702;2022-09-09T02:38:48;101926.03;;;20.66;58.85
72063;BME280;59929;43.546;-5.702;2022-09-09T02:41:24;101929.59;;;20.71;58.93
72063;BME280;59929;43.546;-5.702;2022-09-09T02:43:51;101931.56;;;20.71;59.15
72063;BME280;59929;43.546;-5.702;2022-09-09T02:49:28;101928.50;;;20.67;59.37
72063;BME280;59929;43.546;-5.702;2022-09-09T02:52:02;101919.16;;;20.58;59.19
72063;BME280;59929;43.546;-5.702;2022-09-09T02:54:33;101922.16;;;20.67;59.06
72063;BME280;59929;43.546;-5.702;2022-09-09T02:57:10;101927.66;;;20.72;59.08
72063;BME280;59929;43.546;-5.702;2022-09-09T02:59:37;101920.25;;;20.57;59.11
72063;BME280;59929;43.546;-5.702;2022-09-09T03:02:04;101923.84;;;20.58;59.27
72063;BME280;59929;43.546;-5.702;2022-09-09T03:04:30;101926.84;;;20.66;59.51
72063;BME280;59929;43.546;-5.702;2022-09-09T03:06:57;101918.84;;;20.55;59.35
72063;BME280;59929;43.546;-5.702;2022-09-09T03:09:23;101925.78;;;20.52;59.22
72063;BME280;59929;43.546;-5.702;2022-09-09T03:11:49;101919.47;;;20.42;59.59
72063;BME280;59929;43.546;-5.702;2022-09-09T03:14:15;101924.97;;;20.52;59.79
72063;BME280;59929;43.546;-5.702;2022-09-09T03:16:42;101921.06;;;20.63;59.48
72063;BME280;59929;43.546;-5.702;2022-09-09T03:19:08;101919.94;;;20.59;58.95
72063;BME280;59929;43.546;-5.702;2022-09-09T03:21:34;101919.94;;;20.59;59.21
72063;BME280;59929;43.546;-5.702;2022-09-09T03:24:01;101918.03;;;20.64;59.23
72063;BME280;59929;43.546;-5.702;2022-09-09T03:26:29;101918.84;;;20.65;59.45
72063;BME280;59929;43.546;-5.702;2022-09-09T03:28:56;101911.69;;;20.54;59.53
72063;BME280;59929;43.546;-5.702;2022-09-09T03:31:22;101919.16;;;20.58;59.42
72063;BME280;59929;43.546;-5.702;2022-09-09T03:33:47;101910.59;;;20.50;59.97
72063;BME280;59929;43.546;-5.702;2022-09-09T03:36:14;101917.75;;;20.56;59.97
72063;BME280;59929;43.546;-5.702;2022-09-09T03:38:40;101915.56;;;20.53;59.65
72063;BME280;59929;43.546;-5.702;2022-09-09T03:41:06;101917.78;;;20.46;60.29
72063;BME280;59929;43.546;-5.702;2022-09-09T03:43:33;101912.56;;;20.44;60.28
72063;BME280;59929;43.546;-5.702;2022-09-09T03:45:58;101914.19;;;20.45;60.08
72063;BME280;59929;43.546;-5.702;2022-09-09T03:48:25;101913.06;;;20.51;60.17
72063;BME280;59929;43.546;-5.702;2022-09-09T03:50:53;101915.88;;;20.46;60.11
72063;BME280;59929;43.546;-5.702;2022-09-09T03:53:21;101901.75;;;20.43;60.13
72063;BME280;59929;43.546;-5.702;2022-09-09T03:55:48;101910.06;;;20.43;60.08
72063;BME280;59929;43.546;-5.702;2022-09-09T03:58:16;101909.78;;;20.44;60.03
72063;BME280;59929;43.546;-5.702;2022-09-09T04:00:44;101908.13;;;20.38;59.97
72063;BME280;59929;43.546;-5.702;2022-09-09T04:03:18;101910.34;;;20.36;60.03
72063;BME280;59929;43.546;-5.702;2022-09-09T04:05:43;101900.16;;;20.32;60.28
72063;BME280;59929;43.546;-5.702;2022-09-09T04:08:09;101904.56;;;20.38;60.19
72063;BME280;59929;43.546;-5.702;2022-09-09T04:10:35;101906.19;;;20.44;59.92
72063;BME280;59929;43.546;-5.702;2022-09-09T04:13:03;101902.31;;;20.45;59.78
72063;BME280;59929;43.546;-5.702;2022-09-09T04:15:29;101902.31;;;20.50;59.84
72063;BME280;59929;43.546;-5.702;2022-09-09T04:17:55;101901.72;;;20.63;59.66
72063;BME280;59929;43.546;-5.702;2022-09-09T04:20:21;101907.25;;;20.58;59.45
72063;BME280;59929;43.546;-5.702;2022-09-09T04:22:47;101910.59;;;20.50;59.48
72063;BME280;59929;43.546;-5.702;2022-09-09T04:25:13;101913.88;;;20.57;59.49
72063;BME280;59929;43.546;-5.702;2022-09-09T04:27:39;101902.59;;;20.48;59.38
72063;BME280;59929;43.546;-5.702;2022-09-09T04:30:05;101905.03;;;20.60;59.57
72063;BME280;59929;43.546;-5.702;2022-09-09T04:32:33;101905.88;;;20.60;59.51
72063;BME280;59929;43.546;-5.702;2022-09-09T04:34:59;101908.91;;;20.59;59.68
72063;BME280;59929;43.546;-5.702;2022-09-09T04:37:24;101914.47;;;20.54;60.07
72063;BME280;59929;43.546;-5.702;2022-09-09T04:39:50;101910.59;;;20.50;60.04
72063;BME280;59929;43.546;-5.702;2022-09-09T04:42:16;101911.69;;;20.49;60.44
72063;BME280;59929;43.546;-5.702;2022-09-09T04:44:44;101919.19;;;20.33;60.52
72063;BME280;59929;43.546;-5.702;2022-09-09T04:47:10;101916.69;;;20.37;60.77
72063;BME280;59929;43.546;-5.702;2022-09-09T04:49:35;101912.28;;;20.31;60.49
72063;BME280;59929;43.546;-5.702;2022-09-09T04:52:02;101912.03;;;20.27;60.95
72063;BME280;59929;43.546;-5.702;2022-09-09T04:54:28;101913.41;;;20.14;61.06
72063;BME280;59929;43.546;-5.702;2022-09-09T04:56:54;101908.41;;;20.11;61.22
72063;BME280;59929;43.546;-5.702;2022-09-09T04:59:20;101917.00;;;20.15;60.96
72063;BME280;59929;43.546;-5.702;2022-09-09T05:01:47;101917.00;;;20.20;60.79
72063;BME280;59929;43.546;-5.702;2022-09-09T05:04:12;101911.47;;;20.10;60.81
72063;BME280;59929;43.546;-5.702;2022-09-09T05:06:39;101929.41;;;20.12;60.97
72063;BME280;59929;43.546;-5.702;2022-09-09T05:09:05;101925.56;;;20.08;60.76
72063;BME280;59929;43.546;-5.702;2022-09-09T05:11:32;101923.34;;;20.05;60.53
72063;BME280;59929;43.546;-5.702;2022-09-09T05:13:59;101928.88;;;20.10;60.63
72063;BME280;59929;43.546;-5.702;2022-09-09T05:16:25;101933.56;;;20.10;60.29
72063;BME280;59929;43.546;-5.702;2022-09-09T05:18:51;101936.88;;;20.07;60.70
72063;BME280;59929;43.546;-5.702;2022-09-09T05:21:18;101940.47;;;19.97;61.00
72063;BME280;59929;43.546;-5.702;2022-09-09T05:23:45;101938.78;;;20.11;60.85
72063;BME280;59929;43.546;-5.702;2022-09-09T05:26:13;101934.97;;;20.22;60.36
72063;BME280;59929;43.546;-5.702;2022-09-09T05:28:39;101936.88;;;20.22;60.36
72063;BME280;59929;43.546;-5.702;2022-09-09T05:31:07;101945.44;;;20.31;60.09
72063;BME280;59929;43.546;-5.702;2022-09-09T05:33:35;101942.69;;;20.36;59.78
72063;BME280;59929;43.546;-5.702;2022-09-09T05:36:03;101935.78;;;20.28;59.91
72063;BME280;59929;43.546;-5.702;2022-09-09T05:38:30;101947.63;;;20.13;60.46
72063;BME280;59929;43.546;-5.702;2022-09-09T05:40:56;101937.97;;;20.16;60.10
72063;BME280;59929;43.546;-5.702;2022-09-09T05:43:23;101945.47;;;20.25;59.71
72063;BME280;59929;43.546;-5.702;2022-09-09T05:45:59;101938.50;;;20.18;60.28
72063;BME280;59929;43.546;-5.702;2022-09-09T05:48:28;101943.81;;;20.19;60.03
72063;BME280;59929;43.546;-5.702;2022-09-09T05:50:55;101939.94;;;20.25;59.71
72063;BME280;59929;43.546;-5.702;2022-09-09T05:53:20;101949.59;;;20.13;59.56
72063;BME280;59929;43.546;-5.702;2022-09-09T05:55:46;101944.31;;;20.16;59.95
72063;BME280;59929;43.546;-5.702;2022-09-09T05:58:13;101943.50;;;20.26;59.91
72063;BME280;59929;43.546;-5.702;2022-09-09T06:00:39;101937.97;;;20.26;59.66
72063;BME280;59929;43.546;-5.702;2022-09-09T06:03:05;101948.75;;;20.22;59.43
72063;BME280;59929;43.546;-5.702;2022-09-09T06:05:31;101953.19;;;20.34;59.15
72063;BME280;59929;43.546;-5.702;2022-09-09T06:07:56;101952.09;;;20.19;58.84
72063;BME280;59929;43.546;-5.702;2022-09-09T06:10:22;101960.09;;;20.21;58.85
72063;BME280;59929;43.546;-5.702;2022-09-09T06:12:48;101965.06;;;20.29;58.48
72063;BME280;59929;43.546;-5.702;2022-09-09T06:15:13;101952.38;;;20.23;58.41
72063;BME280;59929;43.546;-5.702;2022-09-09T06:17:39;101957.59;;;20.24;58.38
72063;BME280;59929;43.546;-5.702;2022-09-09T06:20:07;101962.03;;;20.25;58.57
72063;BME280;59929;43.546;-5.702;2022-09-09T06:22:34;101954.31;;;20.27;58.45
72063;BME280;59929;43.546;-5.702;2022-09-09T06:25:00;101962.03;;;20.20;58.04
72063;BME280;59929;43.546;-5.702;2022-09-09T06:27:27;101958.97;;;20.12;57.89
72063;BME280;59929;43.546;-5.702;2022-09-09T06:29:52;101957.84;;;20.18;57.89
72063;BME280;59929;43.546;-5.702;2022-09-09T06:32:18;101962.88;;;20.21;57.64
72063;BME280;59929;43.546;-5.702;2022-09-09T06:34:44;101963.41;;;20.23;57.82
72063;BME280;59929;43.546;-5.702;2022-09-09T06:37:10;101970.28;;;20.31;57.86
72063;BME280;59929;43.546;-5.702;2022-09-09T06:39:36;101975.84;;;20.25;57.67
72063;BME280;59929;43.546;-5.702;2022-09-09T06:42:02;101969.22;;;20.32;57.88
72063;BME280;59929;43.546;-5.702;2022-09-09T06:44:27;101961.47;;;20.34;58.17
72063;BME280;59929;43.546;-5.702;2022-09-09T06:46:53;101975.25;;;20.49;57.95
72063;BME280;59929;43.546;-5.702;2022-09-09T06:49:19;101979.13;;;20.48;58.23
72063;BME280;59929;43.546;-5.702;2022-09-09T06:51:44;101984.09;;;20.46;57.97
72063;BME280;59929;43.546;-5.702;2022-09-09T06:54:11;101987.69;;;20.56;57.71
72063;BME280;59929;43.546;-5.702;2022-09-09T06:56:39;101990.69;;;20.70;57.70
72063;BME280;59929;43.546;-5.702;2022-09-09T06:59:08;101987.63;;;20.76;57.39
72063;BME280;59929;43.546;-5.702;2022-09-09T07:01:39;101995.63;;;20.78;57.28
72063;BME280;59929;43.546;-5.702;2022-09-09T07:04:06;101991.50;;;20.75;57.57
72063;BME280;59929;43.546;-5.702;2022-09-09T07:06:38;101993.44;;;20.75;57.78
72063;BME280;59929;43.546;-5.702;2022-09-09T07:09:06;101995.34;;;20.84;57.53
72063;BME280;59929;43.546;-5.702;2022-09-09T07:11:37;101996.75;;;20.72;57.39
72063;BME280;59929;43.546;-5.702;2022-09-09T07:14:03;101998.06;;;20.94;57.36
72063;BME280;59929;43.546;-5.702;2022-09-09T07:16:29;102002.22;;;21.02;57.14
72063;BME280;59929;43.546;-5.702;2022-09-09T07:18:57;102005.56;;;21.04;57.78
72063;BME280;59929;43.546;-5.702;2022-09-09T07:21:25;102000.28;;;20.97;58.96
72063;BME280;59929;43.546;-5.702;2022-09-09T07:23:52;102004.41;;;21.00;58.92
72063;BME280;59929;43.546;-5.702;2022-09-09T07:26:20;102005.84;;;20.77;59.41
72063;BME280;59929;43.546;-5.702;2022-09-09T07:28:46;101999.19;;;20.88;59.49
72063;BME280;59929;43.546;-5.702;2022-09-09T07:31:16;101996.47;;;20.83;60.14
72063;BME280;59929;43.546;-5.702;2022-09-09T07:33:43;101996.69;;;20.92;60.01
72063;BME280;59929;43.546;-5.702;2022-09-09T07:36:13;101999.50;;;20.87;60.63
72063;BME280;59929;43.546;-5.702;2022-09-09T07:38:41;101992.28;;;20.86;60.42
72063;BME280;59929;43.546;-5.702;2022-09-09T07:41:19;101997.31;;;20.64;61.96
72063;BME280;59929;43.546;-5.702;2022-09-09T07:43:46;102000.63;;;20.66;61.90
72063;BME280;59929;43.546;-5.702;2022-09-09T07:46:14;102002.53;;;20.75;61.36
72063;BME280;59929;43.546;-5.702;2022-09-09T07:48:51;102003.94;;;20.83;62.03
72063;BME280;59929;43.546;-5.702;2022-09-09T07:51:22;102002.84;;;20.79;61.58
72063;BME280;59929;43.546;-5.702;2022-09-09T07:53:51;101998.41;;;20.83;61.57
72063;BME280;59929;43.546;-5.702;2022-09-09T07:56:18;101998.38;;;20.88;61.87
72063;BME280;59929;43.546;-5.702;2022-09-09T07:58:46;102020.47;;;21.08;61.21
72063;BME280;59929;43.546;-5.702;2022-09-09T08:01:15;102014.38;;;21.01;61.08
72063;BME280;59929;43.546;-5.702;2022-09-09T08:03:42;102006.63;;;21.13;60.74
72063;BME280;59929;43.546;-5.702;2022-09-09T08:06:08;102017.09;;;21.21;60.30
72063;BME280;59929;43.546;-5.702;2022-09-09T08:08:35;102005.94;;;21.41;59.45
72063;BME280;59929;43.546;-5.702;2022-09-09T08:11:07;102013.59;;;21.59;59.02
72063;BME280;59929;43.546;-5.702;2022-09-09T08:13:35;102005.19;;;21.74;59.20
72063;BME280;59929;43.546;-5.702;2022-09-09T08:16:12;102009.34;;;21.82;58.03
72063;BME280;59929;43.546;-5.702;2022-09-09T08:21:09;102011.59;;;22.14;57.01
72063;BME280;59929;43.546;-5.702;2022-09-09T08:23:39;102017.53;;;22.31;56.30
72063;BME280;59929;43.546;-5.702;2022-09-09T08:26:06;102018.59;;;22.40;55.77
72063;BME280;59929;43.546;-5.702;2022-09-09T08:28:32;102018.31;;;22.36;55.47
72063;BME280;59929;43.546;-5.702;2022-09-09T08:31:08;102022.13;;;22.45;55.06
72063;BME280;59929;43.546;-5.702;2022-09-09T08:33:34;102020.22;;;22.41;54.13
72063;BME280;59929;43.546;-5.702;2022-09-09T08:36:02;102028.00;;;22.39;54.52
72063;BME280;59929;43.546;-5.702;2022-09-09T08:38:28;102016.69;;;22.35;55.05
72063;BME280;59929;43.546;-5.702;2022-09-09T08:41:03;102022.56;;;22.29;55.06
72063;BME280;59929;43.546;-5.702;2022-09-09T08:43:33;102018.47;;;22.21;54.72
72063;BME280;59929;43.546;-5.702;2022-09-09T08:46:12;102013.34;;;22.05;55.89
72063;BME280;59929;43.546;-5.702;2022-09-09T08:48:52;102028.19;;;22.19;55.64
72063;BME280;59929;43.546;-5.702;2022-09-09T08:51:25;102023.13;;;22.26;53.53
72063;BME280;59929;43.546;-5.702;2022-09-09T08:53:52;102026.41;;;22.28;53.81
72063;BME280;59929;43.546;-5.702;2022-09-09T08:56:24;102025.88;;;22.26;53.53
72063;BME280;59929;43.546;-5.702;2022-09-09T08:58:52;102029.41;;;22.36;53.63
72063;BME280;59929;43.546;-5.702;2022-09-09T09:01:43;102030.84;;;22.34;53.09
72063;BME280;59929;43.546;-5.702;2022-09-09T09:10:04;102031.75;;;22.58;52.89
72063;BME280;59929;43.546;-5.702;2022-09-09T09:12:41;102033.13;;;22.84;51.84
72063;BME280;59929;43.546;-5.702;2022-09-09T09:15:16;102038.69;;;22.84;51.52
72063;BME280;59929;43.546;-5.702;2022-09-09T09:17:43;102037.66;;;22.75;52.20
72063;BME280;59929;43.546;-5.702;2022-09-09T09:20:14;102035.22;;;22.97;50.36
72063;BME280;59929;43.546;-5.702;2022-09-09T09:22:50;102046.44;;;23.11;50.77
72063;BME280;59929;43.546;-5.702;2022-09-09T09:25:20;102052.59;;;23.08;51.19
72063;BME280;59929;43.546;-5.702;2022-09-09T09:27:58;102058.88;;;22.90;51.16
72063;BME280;59929;43.546;-5.702;2022-09-09T09:30:29;102050.63;;;22.85;52.24
72063;BME280;59929;43.546;-5.702;2022-09-09T09:33:00;102057.66;;;22.72;52.09
72063;BME280;59929;43.546;-5.702;2022-09-09T09:35:28;102067.06;;;22.76;53.14
72063;BME280;59929;43.546;-5.702;2022-09-09T09:37:54;102066.09;;;22.57;51.42
72063;BME280;59929;43.546;-5.702;2022-09-09T09:40:21;102066.72;;;22.49;51.68
72063;BME280;59929;43.546;-5.702;2022-09-09T09:42:57;102061.09;;;22.59;51.05
72063;BME280;59929;43.546;-5.702;2022-09-09T09:45:31;102064.63;;;22.70;51.99
72063;BME280;59929;43.546;-5.702;2022-09-09T09:48:00;102063.75;;;22.74;51.71
72063;BME280;59929;43.546;-5.702;2022-09-09T09:50:27;102072.19;;;22.88;51.67
72063;BME280;59929;43.546;-5.702;2022-09-09T09:52:54;102074.09;;;22.92;51.64
72063;BME280;59929;43.546;-5.702;2022-09-09T09:55:23;102077.66;;;22.98;51.02
72063;BME280;59929;43.546;-5.702;2022-09-09T09:57:49;102071.81;;;22.99;50.51
72063;BME280;59929;43.546;-5.702;2022-09-09T10:00:18;102064.72;;;23.40;49.74
72063;BME280;59929;43.546;-5.702;2022-09-09T10:02:46;102071.50;;;23.53;50.09
72063;BME280;59929;43.546;-5.702;2022-09-09T10:05:16;102080.59;;;23.35;49.18
72063;BME280;59929;43.546;-5.702;2022-09-09T10:07:42;102075.34;;;23.33;49.17
72063;BME280;59929;43.546;-5.702;2022-09-09T10:10:25;102071.38;;;23.39;49.90
72063;BME280;59929;43.546;-5.702;2022-09-09T10:13:09;102069.38;;;23.45;49.42
72063;BME280;59929;43.546;-5.702;2022-09-09T10:16:08;102074.44;;;23.62;48.54
72063;BME280;59929;43.546;-5.702;2022-09-09T10:19:01;102072.78;;;23.61;48.79
72063;BME280;59929;43.546;-5.702;2022-09-09T10:24:45;102066.50;;;23.74;46.72
72063;BME280;59929;43.546;-5.702;2022-09-09T10:27:38;102084.81;;;23.27;47.38
72063;BME280;59929;43.546;-5.702;2022-09-09T10:30:17;102077.81;;;23.06;47.93
72063;BME280;59929;43.546;-5.702;2022-09-09T10:32:49;102072.59;;;23.28;49.21
72063;BME280;59929;43.546;-5.702;2022-09-09T10:35:37;102062.50;;;23.37;46.93
72063;BME280;59929;43.546;-5.702;2022-09-09T10:41:19;102071.53;;;23.72;45.44
72063;BME280;59929;43.546;-5.702;2022-09-09T10:47:14;102079.16;;;23.61;45.74
72063;BME280;59929;43.546;-5.702;2022-09-09T10:50:08;102074.88;;;23.69;45.14
72063;BME280;59929;43.546;-5.702;2022-09-09T10:53:08;102080.66;;;23.72;45.16
72063;BME280;59929;43.546;-5.702;2022-09-09T10:55:51;102073.31;;;23.63;45.37
72063;BME280;59929;43.546;-5.702;2022-09-09T10:58:27;102067.75;;;23.63;45.13
72063;BME280;59929;43.546;-5.702;2022-09-09T11:00:58;102066.25;;;23.89;45.37
72063;BME280;59929;43.546;-5.702;2022-09-09T11:03:28;102076.94;;;23.82;45.10
72063;BME280;59929;43.546;-5.702;2022-09-09T11:05:59;102067.84;;;23.95;45.21
72063;BME280;59929;43.546;-5.702;2022-09-09T11:08:27;102068.88;;;24.04;44.64
72063;BME280;59929;43.546;-5.702;2022-09-09T11:11:17;102063.97;;;24.14;43.96
72063;BME280;59929;43.546;-5.702;2022-09-09T11:13:51;102068.47;;;24.29;44.21
72063;BME280;59929;43.546;-5.702;2022-09-09T11:19:39;102069.16;;;24.21;46.05
72063;BME280;59929;43.546;-5.702;2022-09-09T11:24:53;102061.69;;;23.98;45.60
72063;BME280;59929;43.546;-5.702;2022-09-09T11:30:18;102064.19;;;24.18;44.85
72063;BME280;59929;43.546;-5.702;2022-09-09T11:38:46;102071.28;;;24.10;45.23
72063;BME280;59929;43.546;-5.702;2022-09-09T11:41:13;102061.41;;;24.18;45.39
72063;BME280;59929;43.546;-5.702;2022-09-09T11:43:45;102055.25;;;24.21;44.78
72063;BME280;59929;43.546;-5.702;2022-09-09T11:46:13;102070.56;;;24.37;44.18
72063;BME280;59929;43.546;-5.702;2022-09-09T11:48:43;102067.09;;;24.45;44.63
72063;BME280;59929;43.546;-5.702;2022-09-09T11:51:25;102061.69;;;24.35;45.15
72063;BME280;59929;43.546;-5.702;2022-09-09T11:53:55;102064.84;;;24.47;43.76
72063;BME280;59929;43.546;-5.702;2022-09-09T11:56:44;102066.19;;;24.50;43.17
72063;BME280;59929;43.546;-5.702;2022-09-09T11:59:36;102061.84;;;24.44;43.80
72063;BME280;59929;43.546;-5.702;2022-09-09T12:02:14;102066.59;;;24.24;43.41
72063;BME280;59929;43.546;-5.702;2022-09-09T12:04:54;102064.56;;;24.30;43.92
72063;BME280;59929;43.546;-5.702;2022-09-09T12:07:39;102065.94;;;24.46;44.71
72063;BME280;59929;43.546;-5.702;2022-09-09T12:10:22;102069.03;;;24.45;43.94
72063;BME280;59929;43.546;-5.702;2022-09-09T12:12:49;102066.22;;;24.31;44.66
72063;BME280;59929;43.546;-5.702;2022-09-09T12:15:25;102063.72;;;24.48;44.84
72063;BME280;59929;43.546;-5.702;2022-09-09T12:17:56;102067.38;;;24.62;44.16
72063;BME280;59929;43.546;-5.702;2022-09-09T12:20:33;102066.59;;;24.57;44.15
72063;BME280;59929;43.546;-5.702;2022-09-09T12:23:22;102070.22;;;24.57;43.51
72063;BME280;59929;43.546;-5.702;2022-09-09T12:26:03;102064.06;;;24.60;43.78
72063;BME280;59929;43.546;-5.702;2022-09-09T12:31:46;102067.25;;;24.67;44.08
72063;BME280;59929;43.546;-5.702;2022-09-09T12:34:40;102065.91;;;24.65;44.29
72063;BME280;59929;43.546;-5.702;2022-09-09T12:37:15;102062.69;;;24.76;43.32
72063;BME280;59929;43.546;-5.702;2022-09-09T12:39:49;102068.66;;;24.83;44.20
72063;BME280;59929;43.546;-5.702;2022-09-09T12:42:20;102075.06;;;24.84;44.53
72063;BME280;59929;43.546;-5.702;2022-09-09T12:44:55;102065.59;;;24.85;44.37
72063;BME280;59929;43.546;-5.702;2022-09-09T12:47:27;102073.53;;;24.91;45.32
72063;BME280;59929;43.546;-5.702;2022-09-09T12:49:55;102070.84;;;24.86;44.68
72063;BME280;59929;43.546;-5.702;2022-09-09T12:52:30;102077.34;;;24.95;43.84
72063;BME280;59929;43.546;-5.702;2022-09-09T12:54:59;102079.63;;;24.93;44.38
72063;BME280;59929;43.546;-5.702;2022-09-09T12:57:32;102070.56;;;25.01;43.82
72063;BME280;59929;43.546;-5.702;2022-09-09T13:00:14;102061.50;;;25.10;43.68
72063;BME280;59929;43.546;-5.702;2022-09-09T13:02:55;102070.03;;;24.99;44.10
72063;BME280;59929;43.546;-5.702;2022-09-09T13:05:25;102063.34;;;25.00;44.66
72063;BME280;59929;43.546;-5.702;2022-09-09T13:07:51;102060.97;;;25.21;43.61
72063;BME280;59929;43.546;-5.702;2022-09-09T13:10:27;102074.69;;;25.31;43.30
72063;BME280;59929;43.546;-5.702;2022-09-09T13:12:54;102069.78;;;25.42;43.86
72063;BME280;59929;43.546;-5.702;2022-09-09T13:15:24;102063.88;;;25.43;43.70
72063;BME280;59929;43.546;-5.702;2022-09-09T13:18:04;102072.13;;;25.35;44.06
72063;BME280;59929;43.546;-5.702;2022-09-09T13:20:31;102065.63;;;25.26;42.54
72063;BME280;59929;43.546;-5.702;2022-09-09T13:22:57;102065.50;;;25.31;42.95
72063;BME280;59929;43.546;-5.702;2022-09-09T13:25:26;102066.06;;;25.46;41.89
72063;BME280;59929;43.546;-5.702;2022-09-09T13:28:02;102061.94;;;25.44;41.79
72063;BME280;59929;43.546;-5.702;2022-09-09T13:30:31;102062.97;;;25.48;41.38
72063;BME280;59929;43.546;-5.702;2022-09-09T13:33:20;102068.00;;;25.46;42.58
72063;BME280;59929;43.546;-5.702;2022-09-09T13:35:54;102062.03;;;25.39;43.03
72063;BME280;59929;43.546;-5.702;2022-09-09T13:38:20;102062.63;;;25.22;41.58
72063;BME280;59929;43.546;-5.702;2022-09-09T13:40:57;102064.28;;;25.10;40.75
72063;BME280;59929;43.546;-5.702;2022-09-09T13:43:25;102065.72;;;25.21;41.57
72063;BME280;59929;43.546;-5.702;2022-09-09T13:45:56;102063.16;;;25.24;42.20
72063;BME280;59929;43.546;-5.702;2022-09-09T13:48:23;102065.09;;;25.37;40.46
72063;BME280;59929;43.546;-5.702;2022-09-09T13:50:59;102055.59;;;25.79;41.36
72063;BME280;59929;43.546;-5.702;2022-09-09T13:53:25;102058.41;;;26.37;39.63
72063;BME280;59929;43.546;-5.702;2022-09-09T13:55:51;102060.25;;;27.25;39.87
72063;BME280;59929;43.546;-5.702;2022-09-09T13:58:18;102054.09;;;32.14;31.29